Time;durP1;ratioP1;P1;durP2;ratioP2;P2;SDS_P1;SDS_P2;PMS_P1;PMS_P2;Temp;Humidity;BMP_temperature;BMP_pressure;BME280_temperature;BME280_humidity;BME280_pressure;Samples;Min_cycle;Max_cycle;Signal;HPM_P1;HPM_P2
2021/12/05 00:22:21;;;;;;;;;;;;;;;-5.42;100.00;98728.31;1448790;97;20490;-67
2021/12/05 00:24:55;;;;;;;;;;;;;;;-5.40;100.00;98731.08;1422716;99;20171;-68
2021/12/05 00:27:28;;;;;;;;;;;;;;;-5.40;100.00;98733.70;1405773;99;21929;-68
2021/12/05 00:47:34;;;;;;;;;;;;;;;-5.55;100.00;98741.14;1459577;97;20569;-68
2021/12/05 00:51:32;;;;;;;;;;;;;;;;;;;;;
2021/12/05 00:59:03;;;;;;;;;;;;;;;-5.63;100.00;98730.23;1573718;91;20152;-67
2021/12/05 01:06:57;;;;;;;;;;;;;;;-5.66;100.00;98726.63;1580046;91;20170;-68
2021/12/05 01:16:39;;;;;;;;;;;;;;;-5.87;100.00;98726.71;1600454;87;20106;-67
2021/12/05 01:19:08;;;;;;;;;;;;;;;-6.00;100.00;98726.47;1590007;86;20101;-68
2021/12/05 01:21:37;;;;;;;;;;;;;;;-6.02;100.00;98728.43;1638084;86;21090;-67
2021/12/05 01:24:21;;;;;;;;;;;;;;;-6.04;100.00;98722.55;1627941;86;20125;-67
2021/12/05 01:30:30;;;;;;;;;;;;;;;-6.02;100.00;98711.94;1642523;84;20103;-68
2021/12/05 01:33:12;;;;;;;;;;;;;;;-5.95;100.00;98705.87;1643808;84;20221;-69
2021/12/05 01:38:51;;;;;;;;;;;;;;;-5.89;100.00;98717.41;1641209;86;20100;-68
2021/12/05 02:00:51;;;;;;;;;;;;;;;;;;;;;
2021/12/05 02:44:44;;;;;;;;;;;;;;;-6.22;100.00;98696.64;1356462;104;20180;-69
2021/12/05 02:48:21;;;;;;;;;;;;;;;-6.31;100.00;98693.22;1353050;104;20481;-69
2021/12/05 03:37:11;;;;;;;;;;;;;;;-6.64;100.00;98695.05;1637719;86;20130;-69
2021/12/05 03:40:37;;;;;;;;;;;;;;;-6.79;100.00;98689.67;1562621;91;20711;-69
2021/12/05 03:51:28;;;;;;;;;;;;;;;-6.81;100.00;98685.14;1539810;91;20479;-70
2021/12/05 03:53:56;;;;;;;;;;;;;;;-6.69;100.00;98676.46;1573994;91;20122;-68
2021/12/05 03:56:59;;;;;;;;;;;;;;;-6.64;100.00;98677.28;1530995;92;20121;-68
2021/12/05 04:11:21;;;;;;;;;;;;;;;-6.73;100.00;98679.91;1574893;90;20142;-69
2021/12/05 04:22:11;;;;;;;;;;;;;;;-6.73;100.00;98691.65;1431933;97;20237;-70
2021/12/05 04:24:38;;;;;;;;;;;;;;;-6.75;100.00;98692.30;1477626;95;20169;-69
2021/12/05 04:27:05;;;;;;;;;;;;;;;-6.75;100.00;98688.38;1488711;96;20439;-68
2021/12/05 04:29:34;;;;;;;;;;;;;;;-6.78;100.00;98692.63;1488828;96;21166;-67
2021/12/05 04:32:01;;;;;;;;;;;;;;;-6.80;100.00;98689.86;1468636;97;20200;-68
2021/12/05 04:34:27;;;;;;;;;;;;;;;-6.78;100.00;98687.41;1503042;94;20473;-66
2021/12/05 04:36:56;;;;;;;;;;;;;;;-6.76;100.00;98693.29;1520666;94;20485;-67
2021/12/05 04:39:25;;;;;;;;;;;;;;;-6.72;100.00;98685.94;1531972;92;20266;-68
2021/12/05 04:41:52;;;;;;;;;;;;;;;-6.67;100.00;98676.31;1543737;93;21158;-67
2021/12/05 04:44:20;;;;;;;;;;;;;;;-6.66;100.00;98664.88;1555983;90;20163;-67
2021/12/05 04:46:48;;;;;;;;;;;;;;;-6.71;100.00;98657.07;1587702;90;20504;-67
2021/12/05 04:49:15;;;;;;;;;;;;;;;-6.72;100.00;98656.73;1588519;90;20114;-68
2021/12/05 04:52:17;;;;;;;;;;;;;;;-6.74;100.00;98657.38;1673753;84;20467;-68
2021/12/05 04:54:44;;;;;;;;;;;;;;;-6.76;100.00;98656.75;1712019;83;21518;-68
2021/12/05 04:57:19;;;;;;;;;;;;;;;-6.78;100.00;98653.48;1726252;82;20136;-67
2021/12/05 04:59:50;;;;;;;;;;;;;;;-6.84;100.00;98659.34;1731822;81;20112;-67
2021/12/05 05:02:17;;;;;;;;;;;;;;;-6.90;100.00;98662.13;1698695;83;20096;-68
2021/12/05 05:04:50;;;;;;;;;;;;;;;-6.96;100.00;98671.09;1727109;82;20422;-67
2021/12/05 05:07:21;;;;;;;;;;;;;;;-7.01;100.00;98675.48;1726014;81;21764;-67
2021/12/05 05:09:47;;;;;;;;;;;;;;;-7.02;100.00;98682.20;1726647;82;20418;-66
2021/12/05 05:12:15;;;;;;;;;;;;;;;-7.16;100.00;98690.16;1726546;82;20105;-69
2021/12/05 05:14:42;;;;;;;;;;;;;;;-7.23;100.00;98691.28;1754985;81;20091;-66
2021/12/05 05:17:09;;;;;;;;;;;;;;;-7.18;100.00;98702.55;1756537;81;20119;-67
2021/12/05 05:19:44;;;;;;;;;;;;;;;-7.04;100.00;98705.02;1756628;81;21118;-67
2021/12/05 05:22:22;;;;;;;;;;;;;;;-6.98;100.00;98712.17;1736112;81;20373;-66
2021/12/05 05:46:27;;;;;;;;;;;;;;;-7.10;100.00;98728.66;1643301;86;21150;-65
2021/12/05 05:48:58;;;;;;;;;;;;;;;-7.12;100.00;98730.60;1654819;86;20150;-65
2021/12/05 05:51:22;;;;;;;;;;;;;;;-7.07;100.00;98731.43;1654475;86;20141;-66
2021/12/05 05:53:49;;;;;;;;;;;;;;;-6.98;100.00;98739.56;1655483;86;20274;-66
2021/12/05 05:56:20;;;;;;;;;;;;;;;-6.95;100.00;98734.05;1655415;86;20115;-66
2021/12/05 05:58:55;;;;;;;;;;;;;;;-6.91;100.00;98736.64;1655258;86;21689;-67
2021/12/05 06:01:21;;;;;;;;;;;;;;;-6.81;100.00;98739.94;1632408;86;20143;-66
2021/12/05 06:03:48;;;;;;;;;;;;;;;-6.75;100.00;98744.99;1621485;86;20190;-67
2021/12/05 06:06:16;;;;;;;;;;;;;;;-6.70;100.00;98750.53;1623166;86;20373;-68
2021/12/05 06:08:43;;;;;;;;;;;;;;;-6.65;100.00;98742.22;1654417;86;20153;-67
2021/12/05 06:11:14;;;;;;;;;;;;;;;-6.64;100.00;98743.34;1655028;86;21130;-68
2021/12/05 06:13:40;;;;;;;;;;;;;;;-6.57;100.00;98750.04;1655229;86;20911;-67
2021/12/05 06:16:13;;;;;;;;;;;;;;;-6.55;100.00;98746.78;1624386;86;20126;-68
2021/12/05 06:18:41;;;;;;;;;;;;;;;-6.48;100.00;98744.66;1637264;86;20416;-68
2021/12/05 06:21:08;;;;;;;;;;;;;;;-6.40;100.00;98750.35;1716412;82;20149;-68
2021/12/05 06:23:35;;;;;;;;;;;;;;;-6.22;100.00;98752.80;1707243;79;21502;-68
2021/12/05 06:26:02;;;;;;;;;;;;;;;-6.06;100.00;98749.33;1768682;81;20093;-68
2021/12/05 06:28:35;;;;;;;;;;;;;;;-5.95;100.00;98755.98;1768833;80;20136;-67
2021/12/05 06:42:19;;;;;;;;;;;;;;;-5.71;100.00;98773.37;1764690;81;20160;-66
2021/12/05 06:47:06;;;;;;;;;;;;;;;-5.79;100.00;98769.49;1763130;80;20117;-68
2021/12/05 06:49:33;;;;;;;;;;;;;;;-5.80;100.00;98772.60;1768629;81;21815;-67
2021/12/05 06:51:59;;;;;;;;;;;;;;;-5.78;100.00;98772.41;1768828;81;20388;-67
2021/12/05 06:54:26;;;;;;;;;;;;;;;-5.71;100.00;98778.60;1705982;81;20172;-67
2021/12/05 06:56:52;;;;;;;;;;;;;;;-5.58;100.00;98774.98;1736790;81;20113;-67
2021/12/05 06:59:19;;;;;;;;;;;;;;;-5.34;100.00;98771.92;1760384;80;20117;-67
2021/12/05 07:01:45;;;;;;;;;;;;;;;-4.93;100.00;98776.95;1740730;81;21630;-66
2021/12/05 07:04:44;;;;;;;;;;;;;;;-4.57;100.00;98774.58;1751319;81;20133;-66
2021/12/05 07:06:45;;;;;;;;;;;;;;;-4.22;100.00;98779.68;1749204;81;20149;-67
2021/12/05 07:09:12;;;;;;;;;;;;;;;-3.95;100.00;98784.83;1768825;81;20085;-69
2021/12/05 07:19:49;;;;;;;;;;;;;;;-3.57;100.00;98796.58;1747569;80;20083;-65
2021/12/05 07:22:13;;;;;;;;;;;;;;;-3.57;100.00;98795.27;1723718;81;20420;-66
2021/12/05 07:40:29;;;;;;;;;;;;;;;-2.55;100.00;98809.36;1775536;80;21819;-70
2021/12/05 07:42:48;;;;;;;;;;;;;;;-2.57;100.00;98810.88;1766081;80;20069;-69
2021/12/05 07:45:20;;;;;;;;;;;;;;;-2.33;100.00;98810.98;1739766;81;20087;-69
2021/12/05 07:47:48;;;;;;;;;;;;;;;-2.44;100.00;98807.56;1743629;80;20117;-68
2021/12/05 07:50:14;;;;;;;;;;;;;;;-2.39;100.00;98809.12;1769710;80;20153;-70
2021/12/05 07:52:46;;;;;;;;;;;;;;;-2.32;100.00;98807.88;1722711;81;21177;-70
2021/12/05 07:55:21;;;;;;;;;;;;;;;-2.31;100.00;98812.11;1725985;81;20079;-69
2021/12/05 07:58:48;;;;;;;;;;;;;;;-2.38;100.00;98807.62;1736527;80;20073;-69
2021/12/05 08:00:24;;;;;;;;;;;;;;;-2.38;100.00;98805.47;1708403;82;20822;-70
2021/12/05 08:16:34;;;;;;;;;;;;;;;-2.37;100.00;98815.81;1698891;82;20149;-70
2021/12/05 08:19:01;;;;;;;;;;;;;;;-2.39;100.00;98814.38;1725309;83;21129;-69
2021/12/05 08:21:28;;;;;;;;;;;;;;;-2.31;100.00;98808.98;1714020;81;20086;-68
2021/12/05 08:23:54;;;;;;;;;;;;;;;-2.18;100.00;98807.80;1720811;81;20123;-69
2021/12/05 08:26:26;;;;;;;;;;;;;;;-2.09;100.00;98799.25;1699697;83;20096;-69
2021/12/05 08:44:21;;;;;;;;;;;;;;;;;;;;;
2021/12/05 13:17:10;;;;;;;;;;;;;;;-1.78;100.00;98802.02;1735987;80;20094;-70
2021/12/05 13:56:48;;;;;;;;;;;;;;;-2.06;100.00;98808.06;1657937;84;20167;-69
2021/12/05 14:03:48;;;;;;;;;;;;;;;-2.04;100.00;98826.30;1618536;88;20452;-69
2021/12/05 14:10:02;;;;;;;;;;;;;;;-2.02;100.00;98821.66;1578753;89;20445;-69
2021/12/05 14:15:57;;;;;;;;;;;;;;;-2.01;100.00;98832.48;1553880;91;20134;-69
2021/12/05 14:18:46;;;;;;;;;;;;;;;-2.00;100.00;98838.07;1491283;94;20109;-69
2021/12/05 14:25:06;;;;;;;;;;;;;;;-2.00;100.00;98846.77;1472247;94;20452;-68
2021/12/05 14:27:42;;;;;;;;;;;;;;;-2.03;100.00;98844.53;1447389;97;20193;-69
2021/12/05 14:30:18;;;;;;;;;;;;;;;-2.03;100.00;98855.55;1467742;96;20189;-68
2021/12/05 14:35:49;;;;;;;;;;;;;;;-2.04;100.00;98851.28;1478886;95;20166;-68
2021/12/05 14:38:18;;;;;;;;;;;;;;;-2.07;100.00;98844.58;1481991;95;20216;-69
2021/12/05 14:40:53;;;;;;;;;;;;;;;-2.08;100.00;98842.13;1503559;93;21178;-69
2021/12/05 14:43:21;;;;;;;;;;;;;;;-2.10;100.00;98843.66;1523828;93;20220;-69
2021/12/05 14:45:48;;;;;;;;;;;;;;;-2.11;100.00;98842.52;1531089;90;20294;-70
2021/12/05 14:48:15;;;;;;;;;;;;;;;-2.13;100.00;98844.52;1535698;92;20229;-68
2021/12/05 14:50:44;;;;;;;;;;;;;;;-2.13;100.00;98840.58;1578621;89;20422;-69
2021/12/05 14:53:12;;;;;;;;;;;;;;;-2.18;100.00;98832.77;1577246;89;21749;-68
2021/12/05 14:55:38;;;;;;;;;;;;;;;-2.20;100.00;98839.22;1524856;92;20132;-69
2021/12/05 14:58:08;;;;;;;;;;;;;;;-2.22;100.00;98840.72;1541343;92;20184;-69
2021/12/05 15:00:38;;;;;;;;;;;;;;;-2.21;100.00;98850.22;1547915;90;20095;-70
2021/12/05 15:03:14;;;;;;;;;;;;;;;-2.22;100.00;98847.80;1521316;93;20250;-69
2021/12/05 15:05:43;;;;;;;;;;;;;;;-2.22;100.00;98847.80;1507292;93;21878;-70
2021/12/05 15:08:12;;;;;;;;;;;;;;;-2.23;100.00;98837.78;1511708;93;20174;-70
2021/12/05 15:10:41;;;;;;;;;;;;;;;-2.24;100.00;98830.08;1550223;91;20218;-70
2021/12/05 15:13:10;;;;;;;;;;;;;;;-2.24;100.00;98831.39;1641305;83;20419;-67
2021/12/05 15:15:37;;;;;;;;;;;;;;;-2.25;100.00;98842.41;1678080;84;20101;-69
2021/12/05 15:18:05;;;;;;;;;;;;;;;-2.26;100.00;98834.70;1701748;80;21395;-69
2021/12/05 15:20:33;;;;;;;;;;;;;;;-2.28;100.00;98827.03;1757303;81;20598;-70
2021/12/05 15:23:04;;;;;;;;;;;;;;;-2.28;100.00;98830.97;1776726;80;20135;-70
2021/12/05 15:25:31;;;;;;;;;;;;;;;-2.30;100.00;98832.97;1783645;80;20081;-69
2021/12/05 15:27:58;;;;;;;;;;;;;;;-2.30;100.00;98836.91;1762721;80;20091;-70
2021/12/05 15:30:37;;;;;;;;;;;;;;;-2.29;100.00;98835.09;1761519;81;21118;-70
2021/12/05 15:33:09;;;;;;;;;;;;;;;-2.33;100.00;98828.57;1760898;80;20197;-69
2021/12/05 15:35:36;;;;;;;;;;;;;;;-2.32;100.00;98836.78;1727644;81;20421;-69
2021/12/05 15:38:05;;;;;;;;;;;;;;;-2.34;100.00;98826.45;1722804;82;20101;-70
2021/12/05 15:40:33;;;;;;;;;;;;;;;-2.34;100.00;98833.53;1730591;82;20426;-69
2021/12/05 15:43:04;;;;;;;;;;;;;;;-2.34;100.00;98837.47;1730598;83;20520;-70
2021/12/05 15:45:31;;;;;;;;;;;;;;;-2.37;100.00;98837.34;1726950;81;20092;-69
2021/12/05 15:47:58;;;;;;;;;;;;;;;-2.35;100.00;98842.39;1750142;80;20390;-70
2021/12/05 15:50:26;;;;;;;;;;;;;;;-2.36;100.00;98836.33;1718403;82;20166;-68
2021/12/05 15:52:57;;;;;;;;;;;;;;;-2.36;100.00;98840.27;1702014;82;20095;-69
2021/12/05 15:55:27;;;;;;;;;;;;;;;-2.39;100.00;98842.78;1730288;81;39214;-70
2021/12/05 15:58:31;;;;;;;;;;;;;;;-2.38;100.00;98843.59;1737739;81;20080;-70
2021/12/05 16:04:36;;;;;;;;;;;;;;;-2.44;100.00;98834.64;1709333;82;20147;-69
2021/12/05 16:07:56;;;;;;;;;;;;;;;-2.45;100.00;98846.17;1729268;81;20163;-69
2021/12/05 16:10:33;;;;;;;;;;;;;;;-2.45;100.00;98844.86;1729592;81;21041;-70
2021/12/05 16:13:05;;;;;;;;;;;;;;;-2.50;100.00;98850.34;1694336;83;20366;-68
2021/12/05 16:15:37;;;;;;;;;;;;;;;-2.50;100.00;98841.98;1721811;82;20431;-70
2021/12/05 16:18:51;;;;;;;;;;;;;;;-2.52;100.00;98841.34;1632152;87;20188;-70
2021/12/05 16:24:27;;;;;;;;;;;;;;;-2.64;100.00;98845.46;1635157;87;20177;-70
2021/12/05 16:27:36;;;;;;;;;;;;;;;-2.64;100.00;98844.95;1635520;87;20197;-69
2021/12/05 16:30:04;;;;;;;;;;;;;;;-2.69;100.00;98846.52;1642370;87;20201;-68
2021/12/05 16:32:34;;;;;;;;;;;;;;;-2.75;100.00;98853.31;1612232;87;20172;-69
2021/12/05 16:37:57;;;;;;;;;;;;;;;-2.85;100.00;98851.48;1595804;87;21040;-65
2021/12/05 16:40:24;;;;;;;;;;;;;;;-2.87;100.00;98857.41;1605655;89;20129;-67
2021/12/05 16:43:08;;;;;;;;;;;;;;;-2.92;100.00;98866.34;1589198;89;20199;-69
2021/12/05 16:45:36;;;;;;;;;;;;;;;-2.97;100.00;98861.64;1623740;88;20361;-65
2021/12/05 16:48:04;;;;;;;;;;;;;;;-3.09;100.00;98863.91;1598118;88;20173;-66
2021/12/05 16:50:31;;;;;;;;;;;;;;;-3.11;100.00;98869.02;1613260;88;21531;-68
2021/12/05 16:52:57;;;;;;;;;;;;;;;-3.18;100.00;98870.78;1592538;88;20458;-68
2021/12/05 16:55:30;;;;;;;;;;;;;;;-3.22;100.00;98868.19;1633640;86;20218;-65
2021/12/05 16:58:09;;;;;;;;;;;;;;;-3.27;100.00;98869.54;1634976;87;20542;-66
2021/12/05 17:00:28;;;;;;;;;;;;;;;-3.29;100.00;98870.21;1612551;87;20169;-67
2021/12/05 17:02:57;;;;;;;;;;;;;;;-3.33;100.00;98867.66;1661073;85;21098;-66
2021/12/05 17:05:33;;;;;;;;;;;;;;;-3.41;100.00;98857.22;1641089;86;20142;-67
2021/12/05 17:08:12;;;;;;;;;;;;;;;-3.43;100.00;98853.96;1623553;86;20170;-68
2021/12/05 17:11:09;;;;;;;;;;;;;;;-3.45;100.00;98854.16;1582924;89;20482;-67
2021/12/05 17:13:50;;;;;;;;;;;;;;;-3.49;100.00;98856.82;1601071;88;20135;-66
2021/12/05 17:16:27;;;;;;;;;;;;;;;-3.49;100.00;98863.38;1614870;87;21156;-67
2021/12/05 17:19:01;;;;;;;;;;;;;;;-3.49;100.00;98862.56;1627792;86;20159;-67
2021/12/05 17:21:36;;;;;;;;;;;;;;;-3.51;100.00;98856.69;1613418;88;20131;-67
2021/12/05 17:24:26;;;;;;;;;;;;;;;-3.51;100.00;98861.92;1641329;85;20192;-69
2021/12/05 17:27:10;;;;;;;;;;;;;;;-3.51;100.00;98859.30;1631250;84;20228;-69
2021/12/05 17:29:53;;;;;;;;;;;;;;;-3.51;100.00;98861.42;1626602;86;21894;-69
2021/12/05 17:32:36;;;;;;;;;;;;;;;-3.54;100.00;98862.30;1533499;92;20269;-67
2021/12/05 17:35:16;;;;;;;;;;;;;;;-3.53;100.00;98874.41;1556486;91;20155;-69
2021/12/05 17:37:45;;;;;;;;;;;;;;;-3.53;100.00;98866.53;1551392;92;20234;-69
2021/12/05 17:40:12;;;;;;;;;;;;;;;-3.55;100.00;98872.45;1548459;91;20141;-68
2021/12/05 17:45:43;;;;;;;;;;;;;;;-3.57;100.00;98863.98;1553409;92;20136;-69
2021/12/05 17:51:05;;;;;;;;;;;;;;;-3.59;100.00;98862.83;1616593;88;20188;-68
2021/12/05 17:53:32;;;;;;;;;;;;;;;-3.60;100.00;98865.63;1617465;88;20168;-69
2021/12/05 17:56:11;;;;;;;;;;;;;;;-3.59;100.00;98873.83;1617156;88;20236;-68
2021/12/05 18:04:12;;;;;;;;;;;;;;;-3.66;100.00;98876.34;1613271;87;20170;-68
2021/12/05 18:06:39;;;;;;;;;;;;;;;-3.66;100.00;98875.03;1635745;87;20410;-67
2021/12/05 18:09:06;;;;;;;;;;;;;;;-3.67;100.00;98878.66;1601872;86;21989;-66
2021/12/05 18:11:35;;;;;;;;;;;;;;;-3.69;100.00;98872.27;1685205;84;20127;-67
2021/12/05 18:14:02;;;;;;;;;;;;;;;-3.71;100.00;98873.44;1687434;84;20392;-67
2021/12/05 18:16:31;;;;;;;;;;;;;;;-3.71;100.00;98872.94;1672429;85;20807;-66
2021/12/05 18:19:01;;;;;;;;;;;;;;;-3.71;100.00;98873.44;1676382;84;20215;-67
2021/12/05 18:21:30;;;;;;;;;;;;;;;-3.71;100.00;98861.14;1689142;83;21122;-67
2021/12/05 18:23:56;;;;;;;;;;;;;;;-3.71;100.00;98869.00;1688162;83;20115;-67
2021/12/05 18:26:25;;;;;;;;;;;;;;;-3.69;100.00;98869.65;1688877;85;20170;-66
2021/12/05 18:28:51;;;;;;;;;;;;;;;-3.69;100.00;98875.39;1717147;82;20169;-68
2021/12/05 18:31:20;;;;;;;;;;;;;;;-3.67;100.00;98882.09;1720850;82;20106;-67
2021/12/05 18:33:49;;;;;;;;;;;;;;;-3.65;100.00;98889.77;1727425;83;21116;-68
2021/12/05 18:36:16;;;;;;;;;;;;;;;-3.68;100.00;98888.31;1735057;82;20092;-67
2021/12/05 18:38:42;;;;;;;;;;;;;;;-3.66;100.00;98883.70;1748784;80;20153;-67
2021/12/05 18:41:11;;;;;;;;;;;;;;;-3.65;100.00;98888.45;1746816;81;20148;-67
2021/12/05 18:43:38;;;;;;;;;;;;;;;-3.62;100.00;98889.42;1764158;81;20126;-68
2021/12/05 18:46:07;;;;;;;;;;;;;;;-3.63;100.00;98892.22;1744802;81;21104;-68
2021/12/05 18:48:34;;;;;;;;;;;;;;;-3.61;100.00;98890.23;1724687;81;20145;-67
2021/12/05 18:51:02;;;;;;;;;;;;;;;-3.62;100.00;98891.25;1730137;83;20124;-67
2021/12/05 18:53:29;;;;;;;;;;;;;;;-3.64;100.00;98886.16;1739798;81;21145;-68
2021/12/05 18:55:55;;;;;;;;;;;;;;;-3.63;100.00;98890.91;1738054;81;20148;-67
2021/12/05 18:58:24;;;;;;;;;;;;;;;-3.63;100.00;98889.59;1732163;81;21155;-68
2021/12/05 19:06:30;;;;;;;;;;;;;;;-3.64;100.00;98893.22;1774485;81;20069;-67
2021/12/05 19:11:44;;;;;;;;;;;;;;;-3.65;100.00;98885.83;1771839;80;21170;-68
2021/12/05 19:14:13;;;;;;;;;;;;;;;-3.66;100.00;98887.64;1773023;80;20158;-66
2021/12/05 19:16:39;;;;;;;;;;;;;;;-3.63;100.00;98894.34;1770020;80;20169;-67
2021/12/05 19:19:08;;;;;;;;;;;;;;;-3.61;100.00;98892.86;1763448;80;20093;-68
2021/12/05 19:21:35;;;;;;;;;;;;;;;-3.64;100.00;98887.98;1751304;81;20157;-68
2021/12/05 19:24:01;;;;;;;;;;;;;;;-3.65;100.00;98877.95;1763737;81;21054;-66
2021/12/05 19:26:28;;;;;;;;;;;;;;;-3.67;100.00;98870.29;1754024;80;20206;-66
2021/12/05 19:28:57;;;;;;;;;;;;;;;-3.65;100.00;98868.78;1741780;82;20432;-66
2021/12/05 19:31:23;;;;;;;;;;;;;;;-3.66;100.00;98871.09;1743819;81;20826;-67
2021/12/05 19:33:50;;;;;;;;;;;;;;;-3.68;100.00;98873.88;1772231;81;20127;-68
2021/12/05 19:36:18;;;;;;;;;;;;;;;-3.67;100.00;98880.78;1773000;81;21063;-67
2021/12/05 19:38:44;;;;;;;;;;;;;;;-3.69;100.00;98880.14;1769442;80;20100;-68
2021/12/05 19:41:12;;;;;;;;;;;;;;;-3.67;100.00;98880.78;1771153;81;20423;-68
2021/12/05 19:43:38;;;;;;;;;;;;;;;-3.68;100.00;98879.13;1754685;81;20174;-68
2021/12/05 19:46:07;;;;;;;;;;;;;;;-3.68;100.00;98880.45;1758094;81;20116;-68
2021/12/05 19:48:34;;;;;;;;;;;;;;;-3.67;100.00;98876.84;1743423;82;21021;-66
2021/12/05 19:51:07;;;;;;;;;;;;;;;-3.63;100.00;98892.22;1728099;83;20124;-67
2021/12/05 19:53:30;;;;;;;;;;;;;;;-3.62;100.00;98894.67;1738466;81;20184;-68
2021/12/05 19:55:56;;;;;;;;;;;;;;;-3.61;100.00;98900.23;1744292;81;20165;-68
2021/12/05 19:58:23;;;;;;;;;;;;;;;-3.60;100.00;98897.94;1770629;80;20125;-67
2021/12/05 20:00:49;;;;;;;;;;;;;;;-3.58;100.00;98889.38;1769238;80;21073;-67
2021/12/05 20:03:15;;;;;;;;;;;;;;;-3.57;100.00;98891.02;1758558;81;20170;-67
2021/12/05 20:05:42;;;;;;;;;;;;;;;-3.59;100.00;98883.01;1768205;81;20128;-67
2021/12/05 20:08:08;;;;;;;;;;;;;;;-3.59;100.00;98879.08;1773024;80;20108;-67
2021/12/05 20:10:37;;;;;;;;;;;;;;;-3.61;100.00;98878.44;1767424;80;20087;-68
2021/12/05 20:13:04;;;;;;;;;;;;;;;-3.62;100.00;98888.12;1764354;80;21105;-67
2021/12/05 20:15:51;;;;;;;;;;;;;;;-3.62;100.00;98880.25;1769278;81;20519;-67
2021/12/05 20:18:18;;;;;;;;;;;;;;;-3.64;100.00;98882.73;1763607;81;20430;-68
2021/12/05 20:20:47;;;;;;;;;;;;;;;-3.62;100.00;98883.38;1758876;80;20144;-67
2021/12/05 20:23:14;;;;;;;;;;;;;;;-3.60;100.00;98889.23;1744923;80;20162;-68
2021/12/05 20:25:41;;;;;;;;;;;;;;;-3.59;100.00;98888.25;1739143;81;21153;-68
2021/12/05 20:28:07;;;;;;;;;;;;;;;-3.56;100.00;98891.32;1750591;80;20069;-69
2021/12/05 20:30:35;;;;;;;;;;;;;;;-3.53;100.00;98895.39;1766046;80;20120;-67
2021/12/05 20:33:03;;;;;;;;;;;;;;;-3.51;100.00;98908.65;1742365;82;20164;-67
2021/12/05 20:35:30;;;;;;;;;;;;;;;-3.50;100.00;98900.31;1749849;82;20217;-67
2021/12/05 20:38:00;;;;;;;;;;;;;;;-3.49;100.00;98900.61;1760450;80;21168;-65
2021/12/05 20:40:30;;;;;;;;;;;;;;;-3.50;100.00;98893.75;1765884;81;20100;-69
2021/12/05 20:42:57;;;;;;;;;;;;;;;-3.52;100.00;98891.80;1761961;80;20513;-65
2021/12/05 20:45:26;;;;;;;;;;;;;;;-3.50;100.00;98898.49;1753540;80;20199;-71
2021/12/05 20:59:52;;;;;;;;;;;;;;;-3.49;100.00;98896.67;1756887;81;20144;-70
2021/12/05 21:02:19;;;;;;;;;;;;;;;-3.50;100.00;98891.94;1745993;80;20140;-70
2021/12/05 21:04:47;;;;;;;;;;;;;;;-3.51;100.00;98885.54;1765719;79;20145;-70
2021/12/05 21:07:17;;;;;;;;;;;;;;;-3.50;100.00;98892.44;1756323;80;21774;-70
2021/12/05 21:09:44;;;;;;;;;;;;;;;-3.50;100.00;98895.06;1772733;80;20112;-70
2021/12/05 21:12:13;;;;;;;;;;;;;;;-3.50;100.00;98887.19;1774079;80;20164;-71
2021/12/05 21:14:40;;;;;;;;;;;;;;;-3.49;100.00;98888.80;1746028;81;20104;-70
2021/12/05 21:17:06;;;;;;;;;;;;;;;-3.49;100.00;98890.92;1747099;81;20200;-70
2021/12/05 21:19:33;;;;;;;;;;;;;;;-3.49;100.00;98886.99;1755362;81;21137;-70
2021/12/05 21:21:59;;;;;;;;;;;;;;;-3.50;100.00;98879.32;1751024;79;20146;-70
2021/12/05 21:24:26;;;;;;;;;;;;;;;-3.51;100.00;98877.17;1752013;81;20192;-69
2021/12/05 21:26:54;;;;;;;;;;;;;;;-3.51;100.00;98874.55;1742526;80;20106;-70
2021/12/05 21:29:21;;;;;;;;;;;;;;;-3.50;100.00;98860.45;1798187;79;20139;-71
2021/12/05 21:31:48;;;;;;;;;;;;;;;-3.50;100.00;98863.07;1772431;80;21159;-69
2021/12/05 21:34:14;;;;;;;;;;;;;;;-3.50;100.00;98862.27;1766581;80;20126;-70
2021/12/05 21:36:41;;;;;;;;;;;;;;;-3.49;100.00;98867.31;1776561;80;20159;-71
2021/12/05 21:39:07;;;;;;;;;;;;;;;-3.48;100.00;98868.95;1775468;80;20639;-69
2021/12/05 21:41:39;;;;;;;;;;;;;;;-3.46;100.00;98866.95;1737310;81;20503;-70
2021/12/05 21:44:05;;;;;;;;;;;;;;;-3.47;100.00;98864.52;1761039;80;21144;-70
2021/12/05 21:46:36;;;;;;;;;;;;;;;-3.48;100.00;98866.34;1758336;80;20506;-69
2021/12/05 21:49:21;;;;;;;;;;;;;;;-3.45;100.00;98871.72;1743456;80;20128;-70
2021/12/05 21:51:50;;;;;;;;;;;;;;;-3.42;100.00;98878.42;1743811;81;20199;-69
2021/12/05 21:54:21;;;;;;;;;;;;;;;-3.41;100.00;98878.72;1735013;81;20192;-70
2021/12/05 21:56:55;;;;;;;;;;;;;;;-3.42;100.00;98870.04;1762087;81;21182;-70
2021/12/05 21:59:21;;;;;;;;;;;;;;;-3.40;100.00;98866.74;1751975;81;20070;-71
2021/12/05 22:01:51;;;;;;;;;;;;;;;-3.38;100.00;98865.23;1744654;82;20145;-69
2021/12/05 22:04:21;;;;;;;;;;;;;;;-3.39;100.00;98857.05;1742772;82;20673;-71
2021/12/05 22:06:48;;;;;;;;;;;;;;;-3.38;100.00;98856.89;1743028;80;20125;-70
2021/12/05 22:09:15;;;;;;;;;;;;;;;-3.37;100.00;98856.38;1744435;82;21804;-71
2021/12/05 22:11:41;;;;;;;;;;;;;;;-3.36;100.00;98853.56;1744509;81;20085;-69
2021/12/05 22:14:08;;;;;;;;;;;;;;;-3.33;100.00;98841.88;1725936;81;20153;-70
2021/12/05 22:16:39;;;;;;;;;;;;;;;-3.34;100.00;98840.27;1743097;81;20150;-71
2021/12/05 22:19:07;;;;;;;;;;;;;;;-3.36;100.00;98843.06;1744378;82;20122;-70
2021/12/05 22:21:39;;;;;;;;;;;;;;;-3.33;100.00;98851.91;1741819;82;21231;-70
2021/12/05 22:24:04;;;;;;;;;;;;;;;-3.32;100.00;98854.02;1742200;81;20170;-70
2021/12/05 22:26:31;;;;;;;;;;;;;;;-3.31;100.00;98853.83;1739375;82;20470;-70
2021/12/05 22:29:00;;;;;;;;;;;;;;;-3.30;100.00;98844.17;1743145;81;20214;-69
2021/12/05 22:31:26;;;;;;;;;;;;;;;-3.29;100.00;98844.47;1744194;81;20209;-71
2021/12/05 22:33:53;;;;;;;;;;;;;;;-3.28;100.00;98840.36;1744289;82;21143;-71
2021/12/05 22:36:19;;;;;;;;;;;;;;;-3.26;100.00;98847.56;1743772;82;20475;-68
2021/12/05 22:38:45;;;;;;;;;;;;;;;-3.24;100.00;98841.61;1744792;82;20463;-71
2021/12/05 22:41:13;;;;;;;;;;;;;;;-3.24;100.00;98842.92;1742698;82;20162;-71
2021/12/05 22:43:40;;;;;;;;;;;;;;;-3.24;100.00;98846.86;1743091;81;20109;-69
2021/12/05 22:46:07;;;;;;;;;;;;;;;-3.22;100.00;98847.19;1743334;81;21874;-69
2021/12/05 22:48:33;;;;;;;;;;;;;;;-3.21;100.00;98837.80;1743105;82;20547;-70
2021/12/05 22:51:00;;;;;;;;;;;;;;;-3.19;100.00;98838.94;1743334;82;20149;-70
2021/12/05 22:53:26;;;;;;;;;;;;;;;-3.18;100.00;98839.28;1742949;82;20161;-69
2021/12/05 22:55:53;;;;;;;;;;;;;;;-3.16;100.00;98851.70;1743396;82;20145;-70
2021/12/05 22:58:20;;;;;;;;;;;;;;;-3.14;100.00;98854.45;1743650;81;21106;-70
2021/12/05 23:01:03;;;;;;;;;;;;;;;-3.12;100.00;98842.47;1742952;82;20149;-70
2021/12/05 23:03:54;;;;;;;;;;;;;;;-3.11;100.00;98841.45;1743575;82;20118;-70
2021/12/05 23:06:24;;;;;;;;;;;;;;;-3.10;100.00;98848.36;1743540;81;20216;-70
2021/12/05 23:08:52;;;;;;;;;;;;;;;-3.08;100.00;98846.37;1742906;82;20177;-70
2021/12/05 23:11:20;;;;;;;;;;;;;;;-3.08;100.00;98841.92;1744315;81;21099;-70
2021/12/05 23:13:48;;;;;;;;;;;;;;;-3.07;100.00;98840.11;1744741;82;20157;-70
2021/12/05 23:16:14;;;;;;;;;;;;;;;-3.06;100.00;98838.62;1744247;82;20141;-69
2021/12/05 23:18:42;;;;;;;;;;;;;;;-3.05;100.00;98844.68;1742816;82;20757;-69
2021/12/05 23:21:14;;;;;;;;;;;;;;;-3.05;100.00;98849.94;1743262;82;20148;-69
2021/12/05 23:23:39;;;;;;;;;;;;;;;-3.06;100.00;98845.69;1742792;82;21215;-69
2021/12/05 23:26:05;;;;;;;;;;;;;;;-3.04;100.00;98850.23;1743911;82;20137;-69
2021/12/05 23:28:32;;;;;;;;;;;;;;;-3.04;100.00;98847.14;1741641;82;20115;-69
2021/12/05 23:30:59;;;;;;;;;;;;;;;-3.04;100.00;98843.20;1740752;82;20838;-69
2021/12/05 23:33:27;;;;;;;;;;;;;;;-3.03;100.00;98837.44;1743537;82;20149;-70
2021/12/05 23:35:53;;;;;;;;;;;;;;;-3.03;100.00;98828.25;1744760;81;21846;-70
2021/12/05 23:38:20;;;;;;;;;;;;;;;-3.02;100.00;98832.49;1743442;81;20146;-70
2021/12/05 23:40:48;;;;;;;;;;;;;;;-3.03;100.00;98833.50;1744002;81;20500;-70
2021/12/05 23:43:16;;;;;;;;;;;;;;;-3.02;100.00;98826.73;1743394;81;20102;-70
2021/12/05 23:45:42;;;;;;;;;;;;;;;-3.04;100.00;98818.25;1744690;82;20476;-69
2021/12/05 23:48:09;;;;;;;;;;;;;;;-3.03;100.00;98830.88;1744931;82;21843;-69
2021/12/05 23:50:38;;;;;;;;;;;;;;;-3.02;100.00;98834.61;1743311;82;20114;-70
2021/12/05 23:53:07;;;;;;;;;;;;;;;-3.00;100.00;98831.00;1744010;82;20122;-70